sensor_id;sensor_type;location;lat;lon;timestamp;temperature;humidity
1760;DHT22;877;46.266;20.062;2023-09-07T00:00:02;19.90;61.30
1760;DHT22;877;46.266;20.062;2023-09-07T00:02:32;19.90;61.20
1760;DHT22;877;46.266;20.062;2023-09-07T00:04:58;19.90;61.00
1760;DHT22;877;46.266;20.062;2023-09-07T00:07:23;19.60;61.40
1760;DHT22;877;46.266;20.062;2023-09-07T00:09:49;19.50;61.90
1760;DHT22;877;46.266;20.062;2023-09-07T00:12:15;19.30;62.40
1760;DHT22;877;46.266;20.062;2023-09-07T00:14:41;19.40;61.90
1760;DHT22;877;46.266;20.062;2023-09-07T00:17:07;19.40;62.40
1760;DHT22;877;46.266;20.062;2023-09-07T00:19:33;19.30;61.90
1760;DHT22;877;46.266;20.062;2023-09-07T00:22:03;19.10;62.90
1760;DHT22;877;46.266;20.062;2023-09-07T00:24:30;19.20;63.00
1760;DHT22;877;46.266;20.062;2023-09-07T00:26:57;19.10;62.80
1760;DHT22;877;46.266;20.062;2023-09-07T00:29:24;19.10;63.10
1760;DHT22;877;46.266;20.062;2023-09-07T00:31:51;18.90;63.60
1760;DHT22;877;46.266;20.062;2023-09-07T00:34:17;18.90;63.80
1760;DHT22;877;46.266;20.062;2023-09-07T00:36:43;19.10;63.40
1760;DHT22;877;46.266;20.062;2023-09-07T00:39:08;19.20;63.00
1760;DHT22;877;46.266;20.062;2023-09-07T00:41:35;19.00;63.70
1760;DHT22;877;46.266;20.062;2023-09-07T00:44:01;18.80;64.10
1760;DHT22;877;46.266;20.062;2023-09-07T00:46:27;18.80;64.20
1760;DHT22;877;46.266;20.062;2023-09-07T00:48:52;18.80;64.10
1760;DHT22;877;46.266;20.062;2023-09-07T00:51:18;18.70;64.50
1760;DHT22;877;46.266;20.062;2023-09-07T00:53:44;18.60;65.00
1760;DHT22;877;46.266;20.062;2023-09-07T00:56:11;18.70;64.40
1760;DHT22;877;46.266;20.062;2023-09-07T00:58:37;18.60;64.50
1760;DHT22;877;46.266;20.062;2023-09-07T01:01:03;18.70;64.80
1760;DHT22;877;46.266;20.062;2023-09-07T01:03:29;18.70;64.30
1760;DHT22;877;46.266;20.062;2023-09-07T01:06:15;18.70;64.30
1760;DHT22;877;46.266;20.062;2023-09-07T01:08:46;18.70;64.40
1760;DHT22;877;46.266;20.062;2023-09-07T01:11:22;18.50;65.00
1760;DHT22;877;46.266;20.062;2023-09-07T01:13:52;18.60;64.90
1760;DHT22;877;46.266;20.062;2023-09-07T01:16:20;18.60;65.00
1760;DHT22;877;46.266;20.062;2023-09-07T01:18:47;18.50;65.10
1760;DHT22;877;46.266;20.062;2023-09-07T01:21:13;18.60;64.90
1760;DHT22;877;46.266;20.062;2023-09-07T01:23:41;18.60;65.20
1760;DHT22;877;46.266;20.062;2023-09-07T01:26:08;18.50;64.90
1760;DHT22;877;46.266;20.062;2023-09-07T01:28:34;18.50;65.20
1760;DHT22;877;46.266;20.062;2023-09-07T01:31:01;18.40;65.40
1760;DHT22;877;46.266;20.062;2023-09-07T01:33:27;18.50;65.50
1760;DHT22;877;46.266;20.062;2023-09-07T01:35:53;18.40;65.20
1760;DHT22;877;46.266;20.062;2023-09-07T01:38:20;18.30;65.70
1760;DHT22;877;46.266;20.062;2023-09-07T01:40:46;18.40;65.50
1760;DHT22;877;46.266;20.062;2023-09-07T01:43:12;18.30;65.60
1760;DHT22;877;46.266;20.062;2023-09-07T01:45:38;18.20;65.90
1760;DHT22;877;46.266;20.062;2023-09-07T01:48:08;18.10;66.80
1760;DHT22;877;46.266;20.062;2023-09-07T01:50:34;17.80;67.70
1760;DHT22;877;46.266;20.062;2023-09-07T01:53:00;17.70;68.50
1760;DHT22;877;46.266;20.062;2023-09-07T01:55:27;17.60;68.60
1760;DHT22;877;46.266;20.062;2023-09-07T01:57:53;17.90;68.00
1760;DHT22;877;46.266;20.062;2023-09-07T02:00:18;17.80;68.30
1760;DHT22;877;46.266;20.062;2023-09-07T02:02:44;17.80;68.50
1760;DHT22;877;46.266;20.062;2023-09-07T02:05:10;17.80;67.80
1760;DHT22;877;46.266;20.062;2023-09-07T02:07:36;17.70;68.50
1760;DHT22;877;46.266;20.062;2023-09-07T02:10:03;17.70;68.60
1760;DHT22;877;46.266;20.062;2023-09-07T02:12:29;17.70;68.20
1760;DHT22;877;46.266;20.062;2023-09-07T02:14:55;17.90;67.60
1760;DHT22;877;46.266;20.062;2023-09-07T02:17:21;17.90;67.20
1760;DHT22;877;46.266;20.062;2023-09-07T02:19:47;17.80;67.20
1760;DHT22;877;46.266;20.062;2023-09-07T02:22:13;17.80;67.10
1760;DHT22;877;46.266;20.062;2023-09-07T02:24:39;17.90;66.80
1760;DHT22;877;46.266;20.062;2023-09-07T02:27:05;18.00;66.70
1760;DHT22;877;46.266;20.062;2023-09-07T02:29:31;17.90;66.80
1760;DHT22;877;46.266;20.062;2023-09-07T02:31:56;17.60;67.90
1760;DHT22;877;46.266;20.062;2023-09-07T02:34:24;17.60;67.50
1760;DHT22;877;46.266;20.062;2023-09-07T02:36:50;17.70;67.40
1760;DHT22;877;46.266;20.062;2023-09-07T02:39:16;17.70;68.00
1760;DHT22;877;46.266;20.062;2023-09-07T02:41:43;17.70;67.90
1760;DHT22;877;46.266;20.062;2023-09-07T02:44:08;17.70;68.00
1760;DHT22;877;46.266;20.062;2023-09-07T02:46:34;17.70;68.50
1760;DHT22;877;46.266;20.062;2023-09-07T02:49:00;17.80;68.30
1760;DHT22;877;46.266;20.062;2023-09-07T02:51:26;17.70;68.90
1760;DHT22;877;46.266;20.062;2023-09-07T02:53:53;17.70;68.70
1760;DHT22;877;46.266;20.062;2023-09-07T02:56:20;17.70;68.30
1760;DHT22;877;46.266;20.062;2023-09-07T02:58:45;17.70;69.00
1760;DHT22;877;46.266;20.062;2023-09-07T03:01:11;17.70;69.00
1760;DHT22;877;46.266;20.062;2023-09-07T03:03:40;17.70;68.70
1760;DHT22;877;46.266;20.062;2023-09-07T03:06:11;17.70;69.40
1760;DHT22;877;46.266;20.062;2023-09-07T03:08:41;17.60;69.90
1760;DHT22;877;46.266;20.062;2023-09-07T03:11:09;17.60;70.00
1760;DHT22;877;46.266;20.062;2023-09-07T03:13:35;17.70;69.70
1760;DHT22;877;46.266;20.062;2023-09-07T03:16:02;17.80;69.70
1760;DHT22;877;46.266;20.062;2023-09-07T03:18:29;17.70;69.70
1760;DHT22;877;46.266;20.062;2023-09-07T03:20:59;17.70;70.10
1760;DHT22;877;46.266;20.062;2023-09-07T03:23:28;17.80;70.10
1760;DHT22;877;46.266;20.062;2023-09-07T03:25:54;17.80;70.20
1760;DHT22;877;46.266;20.062;2023-09-07T03:28:20;17.80;69.30
1760;DHT22;877;46.266;20.062;2023-09-07T03:30:46;17.80;69.70
1760;DHT22;877;46.266;20.062;2023-09-07T03:33:13;17.80;69.60
1760;DHT22;877;46.266;20.062;2023-09-07T03:35:39;17.70;70.20
1760;DHT22;877;46.266;20.062;2023-09-07T03:38:06;17.70;70.50
1760;DHT22;877;46.266;20.062;2023-09-07T03:40:32;17.70;70.90
1760;DHT22;877;46.266;20.062;2023-09-07T03:42:58;17.70;70.60
1760;DHT22;877;46.266;20.062;2023-09-07T03:45:25;17.60;70.70
1760;DHT22;877;46.266;20.062;2023-09-07T03:47:51;17.60;71.50
1760;DHT22;877;46.266;20.062;2023-09-07T03:50:17;17.70;71.60
1760;DHT22;877;46.266;20.062;2023-09-07T03:52:43;17.70;70.90
1760;DHT22;877;46.266;20.062;2023-09-07T03:55:09;17.60;71.30
1760;DHT22;877;46.266;20.062;2023-09-07T03:57:35;17.50;71.00
1760;DHT22;877;46.266;20.062;2023-09-07T04:00:02;17.60;70.60
1760;DHT22;877;46.266;20.062;2023-09-07T04:02:35;17.60;70.10
1760;DHT22;877;46.266;20.062;2023-09-07T04:05:00;17.50;71.10
1760;DHT22;877;46.266;20.062;2023-09-07T04:07:32;17.50;70.30
1760;DHT22;877;46.266;20.062;2023-09-07T04:09:58;17.50;70.70
1760;DHT22;877;46.266;20.062;2023-09-07T04:12:24;17.40;71.30
1760;DHT22;877;46.266;20.062;2023-09-07T04:14:51;17.40;71.00
1760;DHT22;877;46.266;20.062;2023-09-07T04:17:17;17.40;70.50
1760;DHT22;877;46.266;20.062;2023-09-07T04:19:43;17.50;70.20
1760;DHT22;877;46.266;20.062;2023-09-07T04:22:11;17.30;70.80
1760;DHT22;877;46.266;20.062;2023-09-07T04:24:37;17.40;70.50
1760;DHT22;877;46.266;20.062;2023-09-07T04:27:03;17.40;70.60
1760;DHT22;877;46.266;20.062;2023-09-07T04:29:29;17.50;69.90
1760;DHT22;877;46.266;20.062;2023-09-07T04:31:55;17.30;70.50
1760;DHT22;877;46.266;20.062;2023-09-07T04:34:22;17.30;70.70
1760;DHT22;877;46.266;20.062;2023-09-07T04:36:48;17.40;70.80
1760;DHT22;877;46.266;20.062;2023-09-07T04:39:15;17.40;70.50
1760;DHT22;877;46.266;20.062;2023-09-07T04:41:41;17.40;70.90
1760;DHT22;877;46.266;20.062;2023-09-07T04:44:07;17.40;70.90
1760;DHT22;877;46.266;20.062;2023-09-07T04:46:33;17.30;70.90
1760;DHT22;877;46.266;20.062;2023-09-07T04:48:59;17.30;71.20
1760;DHT22;877;46.266;20.062;2023-09-07T04:51:25;17.20;72.60
1760;DHT22;877;46.266;20.062;2023-09-07T04:53:51;17.30;72.10
1760;DHT22;877;46.266;20.062;2023-09-07T04:56:17;17.40;71.30
1760;DHT22;877;46.266;20.062;2023-09-07T04:58:43;17.40;71.50
1760;DHT22;877;46.266;20.062;2023-09-07T05:01:10;17.50;71.20
1760;DHT22;877;46.266;20.062;2023-09-07T05:03:36;17.40;71.20
1760;DHT22;877;46.266;20.062;2023-09-07T05:06:03;17.50;71.50
1760;DHT22;877;46.266;20.062;2023-09-07T05:08:29;17.50;72.00
1760;DHT22;877;46.266;20.062;2023-09-07T05:11:00;17.50;71.90
1760;DHT22;877;46.266;20.062;2023-09-07T05:13:27;17.40;72.20
1760;DHT22;877;46.266;20.062;2023-09-07T05:15:54;17.40;72.70
1760;DHT22;877;46.266;20.062;2023-09-07T05:18:21;17.30;72.50
1760;DHT22;877;46.266;20.062;2023-09-07T05:20:49;17.70;71.80
1760;DHT22;877;46.266;20.062;2023-09-07T05:23:17;17.70;71.50
1760;DHT22;877;46.266;20.062;2023-09-07T05:25:54;17.90;71.10
1760;DHT22;877;46.266;20.062;2023-09-07T05:28:21;18.00;70.90
1760;DHT22;877;46.266;20.062;2023-09-07T05:30:47;18.00;71.10
1760;DHT22;877;46.266;20.062;2023-09-07T05:33:15;18.10;70.80
1760;DHT22;877;46.266;20.062;2023-09-07T05:35:41;18.10;70.60
1760;DHT22;877;46.266;20.062;2023-09-07T05:38:08;18.30;70.40
1760;DHT22;877;46.266;20.062;2023-09-07T05:40:40;18.20;70.90
1760;DHT22;877;46.266;20.062;2023-09-07T05:43:07;18.20;70.40
1760;DHT22;877;46.266;20.062;2023-09-07T05:45:37;18.40;70.30
1760;DHT22;877;46.266;20.062;2023-09-07T05:48:03;18.50;70.20
1760;DHT22;877;46.266;20.062;2023-09-07T05:50:29;18.50;69.70
1760;DHT22;877;46.266;20.062;2023-09-07T05:52:55;18.60;69.60
1760;DHT22;877;46.266;20.062;2023-09-07T05:55:21;18.60;69.20
1760;DHT22;877;46.266;20.062;2023-09-07T05:57:49;18.60;68.90
1760;DHT22;877;46.266;20.062;2023-09-07T06:00:15;18.60;68.80
1760;DHT22;877;46.266;20.062;2023-09-07T06:02:46;18.80;68.30
1760;DHT22;877;46.266;20.062;2023-09-07T06:05:13;19.00;67.10
1760;DHT22;877;46.266;20.062;2023-09-07T06:07:39;18.90;67.30
1760;DHT22;877;46.266;20.062;2023-09-07T06:10:05;19.00;67.10
1760;DHT22;877;46.266;20.062;2023-09-07T06:12:34;19.20;66.40
1760;DHT22;877;46.266;20.062;2023-09-07T06:15:07;19.40;65.80
1760;DHT22;877;46.266;20.062;2023-09-07T06:17:33;19.40;66.10
1760;DHT22;877;46.266;20.062;2023-09-07T06:19:59;19.60;65.10
1760;DHT22;877;46.266;20.062;2023-09-07T06:22:25;19.60;65.20
1760;DHT22;877;46.266;20.062;2023-09-07T06:24:50;19.70;65.10
1760;DHT22;877;46.266;20.062;2023-09-07T06:27:16;19.90;64.80
1760;DHT22;877;46.266;20.062;2023-09-07T06:29:42;20.30;63.80
1760;DHT22;877;46.266;20.062;2023-09-07T06:32:08;20.40;63.00
1760;DHT22;877;46.266;20.062;2023-09-07T06:34:35;20.60;62.60
1760;DHT22;877;46.266;20.062;2023-09-07T06:37:01;20.60;62.30
1760;DHT22;877;46.266;20.062;2023-09-07T06:39:27;20.80;62.20
1760;DHT22;877;46.266;20.062;2023-09-07T06:41:54;21.00;61.90
1760;DHT22;877;46.266;20.062;2023-09-07T06:44:20;21.30;61.50
1760;DHT22;877;46.266;20.062;2023-09-07T06:46:46;21.60;59.30
1760;DHT22;877;46.266;20.062;2023-09-07T06:49:12;21.60;60.10
1760;DHT22;877;46.266;20.062;2023-09-07T06:51:38;21.70;59.90
1760;DHT22;877;46.266;20.062;2023-09-07T06:54:04;22.00;59.00
1760;DHT22;877;46.266;20.062;2023-09-07T06:56:30;22.00;59.30
1760;DHT22;877;46.266;20.062;2023-09-07T06:58:57;21.90;59.80
1760;DHT22;877;46.266;20.062;2023-09-07T07:01:23;22.30;58.60
1760;DHT22;877;46.266;20.062;2023-09-07T07:03:49;22.50;57.80
1760;DHT22;877;46.266;20.062;2023-09-07T07:06:15;22.70;57.70
1760;DHT22;877;46.266;20.062;2023-09-07T07:08:41;23.30;55.70
1760;DHT22;877;46.266;20.062;2023-09-07T07:11:07;23.40;54.40
1760;DHT22;877;46.266;20.062;2023-09-07T07:13:33;22.70;55.30
1760;DHT22;877;46.266;20.062;2023-09-07T07:15:59;22.80;55.80
1760;DHT22;877;46.266;20.062;2023-09-07T07:18:25;23.60;55.20
1760;DHT22;877;46.266;20.062;2023-09-07T07:20:50;23.60;53.60
1760;DHT22;877;46.266;20.062;2023-09-07T07:23:19;24.20;52.80
1760;DHT22;877;46.266;20.062;2023-09-07T07:25:45;24.30;53.50
1760;DHT22;877;46.266;20.062;2023-09-07T07:28:11;24.80;50.50
1760;DHT22;877;46.266;20.062;2023-09-07T07:30:39;25.10;50.10
1760;DHT22;877;46.266;20.062;2023-09-07T07:33:09;25.10;50.40
1760;DHT22;877;46.266;20.062;2023-09-07T07:35:37;25.00;50.90
1760;DHT22;877;46.266;20.062;2023-09-07T07:38:03;25.10;50.20
1760;DHT22;877;46.266;20.062;2023-09-07T07:40:30;25.40;49.90
1760;DHT22;877;46.266;20.062;2023-09-07T07:42:56;25.40;49.80
1760;DHT22;877;46.266;20.062;2023-09-07T07:45:22;25.40;47.80
1760;DHT22;877;46.266;20.062;2023-09-07T07:47:49;25.00;49.80
1760;DHT22;877;46.266;20.062;2023-09-07T07:50:15;25.50;49.70
1760;DHT22;877;46.266;20.062;2023-09-07T07:52:42;25.80;48.20
1760;DHT22;877;46.266;20.062;2023-09-07T07:55:08;26.00;46.80
1760;DHT22;877;46.266;20.062;2023-09-07T07:57:34;25.70;47.80
1760;DHT22;877;46.266;20.062;2023-09-07T08:00:04;25.50;48.30
1760;DHT22;877;46.266;20.062;2023-09-07T08:02:30;25.80;48.50
1760;DHT22;877;46.266;20.062;2023-09-07T08:04:57;26.50;46.40
1760;DHT22;877;46.266;20.062;2023-09-07T08:07:23;26.50;46.80
1760;DHT22;877;46.266;20.062;2023-09-07T08:09:49;26.20;47.60
1760;DHT22;877;46.266;20.062;2023-09-07T08:12:16;27.10;44.40
1760;DHT22;877;46.266;20.062;2023-09-07T08:14:42;27.50;44.60
1760;DHT22;877;46.266;20.062;2023-09-07T08:17:08;27.70;44.50
1760;DHT22;877;46.266;20.062;2023-09-07T08:19:35;27.30;45.80
1760;DHT22;877;46.266;20.062;2023-09-07T08:22:01;28.00;44.00
1760;DHT22;877;46.266;20.062;2023-09-07T08:24:29;27.80;44.30
1760;DHT22;877;46.266;20.062;2023-09-07T08:26:55;28.40;42.80
1760;DHT22;877;46.266;20.062;2023-09-07T08:29:23;28.70;42.40
1760;DHT22;877;46.266;20.062;2023-09-07T08:31:54;28.80;41.90
1760;DHT22;877;46.266;20.062;2023-09-07T08:34:20;28.20;42.80
1760;DHT22;877;46.266;20.062;2023-09-07T08:36:48;28.00;43.70
1760;DHT22;877;46.266;20.062;2023-09-07T08:39:16;28.30;42.90
1760;DHT22;877;46.266;20.062;2023-09-07T08:41:44;28.30;41.90
1760;DHT22;877;46.266;20.062;2023-09-07T08:44:10;27.50;43.90
1760;DHT22;877;46.266;20.062;2023-09-07T08:46:41;27.70;43.60
1760;DHT22;877;46.266;20.062;2023-09-07T08:49:07;28.30;43.80
1760;DHT22;877;46.266;20.062;2023-09-07T08:51:36;28.80;41.90
1760;DHT22;877;46.266;20.062;2023-09-07T08:54:07;28.00;43.00
1760;DHT22;877;46.266;20.062;2023-09-07T08:56:33;27.50;45.00
1760;DHT22;877;46.266;20.062;2023-09-07T08:58:59;28.00;43.70
1760;DHT22;877;46.266;20.062;2023-09-07T09:01:25;27.40;44.30
1760;DHT22;877;46.266;20.062;2023-09-07T09:03:52;28.20;43.20
1760;DHT22;877;46.266;20.062;2023-09-07T09:06:19;28.10;42.10
1760;DHT22;877;46.266;20.062;2023-09-07T09:08:46;28.20;42.00
1760;DHT22;877;46.266;20.062;2023-09-07T09:11:17;28.40;40.90
1760;DHT22;877;46.266;20.062;2023-09-07T09:13:43;27.90;42.10
1760;DHT22;877;46.266;20.062;2023-09-07T09:16:10;27.90;41.80
1760;DHT22;877;46.266;20.062;2023-09-07T09:18:37;27.60;41.80
1760;DHT22;877;46.266;20.062;2023-09-07T09:21:03;27.90;41.10
1760;DHT22;877;46.266;20.062;2023-09-07T09:23:33;28.00;41.10
1760;DHT22;877;46.266;20.062;2023-09-07T09:26:00;28.70;41.00
1760;DHT22;877;46.266;20.062;2023-09-07T09:28:33;29.40;38.90
1760;DHT22;877;46.266;20.062;2023-09-07T09:31:00;29.50;39.20
1760;DHT22;877;46.266;20.062;2023-09-07T09:33:27;28.80;39.30
1760;DHT22;877;46.266;20.062;2023-09-07T09:35:55;27.90;42.30
1760;DHT22;877;46.266;20.062;2023-09-07T09:38:22;28.60;38.80
1760;DHT22;877;46.266;20.062;2023-09-07T09:40:48;28.90;38.90
1760;DHT22;877;46.266;20.062;2023-09-07T09:43:15;29.00;38.80
1760;DHT22;877;46.266;20.062;2023-09-07T09:45:41;30.10;36.30
1760;DHT22;877;46.266;20.062;2023-09-07T09:48:07;30.30;37.20
1760;DHT22;877;46.266;20.062;2023-09-07T09:50:34;30.30;36.90
1760;DHT22;877;46.266;20.062;2023-09-07T09:53:07;30.80;34.80
1760;DHT22;877;46.266;20.062;2023-09-07T09:55:36;30.80;34.70
1760;DHT22;877;46.266;20.062;2023-09-07T09:58:02;30.30;35.90
1760;DHT22;877;46.266;20.062;2023-09-07T10:00:28;30.70;35.50
1760;DHT22;877;46.266;20.062;2023-09-07T10:03:06;30.70;35.40
1760;DHT22;877;46.266;20.062;2023-09-07T10:05:33;30.20;37.10
1760;DHT22;877;46.266;20.062;2023-09-07T10:08:13;30.60;37.80
1760;DHT22;877;46.266;20.062;2023-09-07T10:10:41;31.00;35.40
1760;DHT22;877;46.266;20.062;2023-09-07T10:13:08;31.20;36.60
1760;DHT22;877;46.266;20.062;2023-09-07T10:15:34;31.20;35.70
1760;DHT22;877;46.266;20.062;2023-09-07T10:18:14;31.30;34.70
1760;DHT22;877;46.266;20.062;2023-09-07T10:20:54;30.00;34.80
1760;DHT22;877;46.266;20.062;2023-09-07T10:26:19;31.70;34.50
1760;DHT22;877;46.266;20.062;2023-09-07T10:28:47;31.90;32.40
1760;DHT22;877;46.266;20.062;2023-09-07T10:31:19;32.30;31.60
1760;DHT22;877;46.266;20.062;2023-09-07T10:33:46;31.80;33.10
1760;DHT22;877;46.266;20.062;2023-09-07T10:36:38;30.90;34.30
1760;DHT22;877;46.266;20.062;2023-09-07T10:39:06;30.70;33.10
1760;DHT22;877;46.266;20.062;2023-09-07T10:41:44;30.20;33.90
1760;DHT22;877;46.266;20.062;2023-09-07T10:44:10;30.70;33.20
1760;DHT22;877;46.266;20.062;2023-09-07T10:46:37;31.20;32.90
1760;DHT22;877;46.266;20.062;2023-09-07T10:49:07;31.40;33.50
1760;DHT22;877;46.266;20.062;2023-09-07T10:51:41;31.50;32.80
1760;DHT22;877;46.266;20.062;2023-09-07T10:54:23;31.30;34.10
1760;DHT22;877;46.266;20.062;2023-09-07T10:56:50;31.10;35.80
1760;DHT22;877;46.266;20.062;2023-09-07T10:59:17;31.40;36.10
1760;DHT22;877;46.266;20.062;2023-09-07T11:01:47;31.10;35.30
1760;DHT22;877;46.266;20.062;2023-09-07T11:04:14;30.10;37.70
1760;DHT22;877;46.266;20.062;2023-09-07T11:06:42;30.10;37.30
1760;DHT22;877;46.266;20.062;2023-09-07T11:09:09;31.10;36.30
1760;DHT22;877;46.266;20.062;2023-09-07T11:11:38;31.00;36.70
1760;DHT22;877;46.266;20.062;2023-09-07T11:14:04;32.00;35.30
1760;DHT22;877;46.266;20.062;2023-09-07T11:16:34;31.10;36.60
1760;DHT22;877;46.266;20.062;2023-09-07T11:19:07;30.90;36.20
1760;DHT22;877;46.266;20.062;2023-09-07T11:21:36;31.80;35.60
1760;DHT22;877;46.266;20.062;2023-09-07T11:24:02;31.70;35.20
1760;DHT22;877;46.266;20.062;2023-09-07T11:26:57;31.30;35.40
1760;DHT22;877;46.266;20.062;2023-09-07T11:29:31;31.60;35.80
1760;DHT22;877;46.266;20.062;2023-09-07T11:32:07;31.20;36.10
1760;DHT22;877;46.266;20.062;2023-09-07T11:34:34;31.90;33.10
1760;DHT22;877;46.266;20.062;2023-09-07T11:37:03;32.00;34.70
1760;DHT22;877;46.266;20.062;2023-09-07T11:39:29;31.50;35.00
1760;DHT22;877;46.266;20.062;2023-09-07T11:41:54;32.50;34.70
1760;DHT22;877;46.266;20.062;2023-09-07T11:44:21;32.50;33.90
1760;DHT22;877;46.266;20.062;2023-09-07T11:46:46;32.60;33.50
1760;DHT22;877;46.266;20.062;2023-09-07T11:49:12;32.80;34.40
1760;DHT22;877;46.266;20.062;2023-09-07T11:51:40;33.00;32.90
1760;DHT22;877;46.266;20.062;2023-09-07T11:54:07;32.90;32.70
1760;DHT22;877;46.266;20.062;2023-09-07T11:56:32;30.90;33.80
1760;DHT22;877;46.266;20.062;2023-09-07T11:59:03;31.20;35.10
1760;DHT22;877;46.266;20.062;2023-09-07T12:01:28;31.10;35.70
1760;DHT22;877;46.266;20.062;2023-09-07T12:03:55;31.70;34.00
1760;DHT22;877;46.266;20.062;2023-09-07T12:06:21;31.90;33.50
1760;DHT22;877;46.266;20.062;2023-09-07T12:09:05;32.40;33.30
1760;DHT22;877;46.266;20.062;2023-09-07T12:11:37;32.90;32.20
1760;DHT22;877;46.266;20.062;2023-09-07T12:14:05;32.90;32.50
1760;DHT22;877;46.266;20.062;2023-09-07T12:16:31;33.00;31.60
1760;DHT22;877;46.266;20.062;2023-09-07T12:18:56;33.10;31.60
1760;DHT22;877;46.266;20.062;2023-09-07T12:21:22;33.10;31.80
1760;DHT22;877;46.266;20.062;2023-09-07T12:23:48;32.90;31.80
1760;DHT22;877;46.266;20.062;2023-09-07T12:26:14;31.10;34.00
1760;DHT22;877;46.266;20.062;2023-09-07T12:28:41;32.20;32.70
1760;DHT22;877;46.266;20.062;2023-09-07T12:31:08;33.00;32.30
1760;DHT22;877;46.266;20.062;2023-09-07T12:33:34;32.80;31.10
1760;DHT22;877;46.266;20.062;2023-09-07T12:35:59;32.50;31.90
1760;DHT22;877;46.266;20.062;2023-09-07T12:38:26;32.80;32.20
1760;DHT22;877;46.266;20.062;2023-09-07T12:41:08;33.30;32.00
1760;DHT22;877;46.266;20.062;2023-09-07T12:43:37;32.00;31.90
1760;DHT22;877;46.266;20.062;2023-09-07T12:46:03;32.70;32.40
1760;DHT22;877;46.266;20.062;2023-09-07T12:48:30;33.30;31.80
1760;DHT22;877;46.266;20.062;2023-09-07T12:50:56;33.30;31.50
1760;DHT22;877;46.266;20.062;2023-09-07T12:53:23;33.50;31.30
1760;DHT22;877;46.266;20.062;2023-09-07T12:56:06;33.50;30.30
1760;DHT22;877;46.266;20.062;2023-09-07T12:58:32;33.30;30.90
1760;DHT22;877;46.266;20.062;2023-09-07T13:00:58;32.50;32.10
1760;DHT22;877;46.266;20.062;2023-09-07T13:03:24;33.50;31.50
1760;DHT22;877;46.266;20.062;2023-09-07T13:05:51;33.80;30.70
1760;DHT22;877;46.266;20.062;2023-09-07T13:08:17;32.30;31.40
1760;DHT22;877;46.266;20.062;2023-09-07T13:10:44;32.50;33.40
1760;DHT22;877;46.266;20.062;2023-09-07T13:13:10;33.50;31.10
1760;DHT22;877;46.266;20.062;2023-09-07T13:15:37;31.70;32.90
1760;DHT22;877;46.266;20.062;2023-09-07T13:18:06;32.90;32.50
1760;DHT22;877;46.266;20.062;2023-09-07T13:20:32;33.70;31.00
1760;DHT22;877;46.266;20.062;2023-09-07T13:22:58;33.80;30.40
1760;DHT22;877;46.266;20.062;2023-09-07T13:25:25;34.10;30.40
1760;DHT22;877;46.266;20.062;2023-09-07T13:27:51;34.10;30.20
1760;DHT22;877;46.266;20.062;2023-09-07T13:30:17;34.10;30.00
1760;DHT22;877;46.266;20.062;2023-09-07T13:32:43;34.10;30.40
1760;DHT22;877;46.266;20.062;2023-09-07T13:35:11;34.50;30.40
1760;DHT22;877;46.266;20.062;2023-09-07T13:37:37;34.70;29.40
1760;DHT22;877;46.266;20.062;2023-09-07T13:40:03;34.70;29.80
1760;DHT22;877;46.266;20.062;2023-09-07T13:42:29;34.30;29.90
1760;DHT22;877;46.266;20.062;2023-09-07T13:44:55;34.60;29.60
1760;DHT22;877;46.266;20.062;2023-09-07T13:47:22;34.00;29.70
1760;DHT22;877;46.266;20.062;2023-09-07T13:49:47;32.90;29.80
1760;DHT22;877;46.266;20.062;2023-09-07T13:52:13;33.10;30.90
1760;DHT22;877;46.266;20.062;2023-09-07T13:54:40;32.50;31.50
1760;DHT22;877;46.266;20.062;2023-09-07T13:57:06;32.30;30.90
1760;DHT22;877;46.266;20.062;2023-09-07T13:59:33;33.10;31.10
1760;DHT22;877;46.266;20.062;2023-09-07T14:02:00;33.90;29.80
1760;DHT22;877;46.266;20.062;2023-09-07T14:04:26;34.20;29.40
1760;DHT22;877;46.266;20.062;2023-09-07T14:06:52;34.50;29.40
1760;DHT22;877;46.266;20.062;2023-09-07T14:09:18;33.70;29.80
1760;DHT22;877;46.266;20.062;2023-09-07T14:11:45;34.20;29.40
1760;DHT22;877;46.266;20.062;2023-09-07T14:14:11;34.20;29.50
1760;DHT22;877;46.266;20.062;2023-09-07T14:16:38;33.00;30.40
1760;DHT22;877;46.266;20.062;2023-09-07T14:19:04;34.00;29.70
1760;DHT22;877;46.266;20.062;2023-09-07T14:21:30;34.50;28.50
1760;DHT22;877;46.266;20.062;2023-09-07T14:23:56;34.50;28.70
1760;DHT22;877;46.266;20.062;2023-09-07T14:26:22;34.60;28.50
1760;DHT22;877;46.266;20.062;2023-09-07T14:28:47;34.60;28.30
1760;DHT22;877;46.266;20.062;2023-09-07T14:31:13;34.90;28.00
1760;DHT22;877;46.266;20.062;2023-09-07T14:33:39;34.70;28.20
1760;DHT22;877;46.266;20.062;2023-09-07T14:36:09;35.00;28.20
1760;DHT22;877;46.266;20.062;2023-09-07T14:38:36;34.90;28.40
1760;DHT22;877;46.266;20.062;2023-09-07T14:41:11;34.70;28.40
1760;DHT22;877;46.266;20.062;2023-09-07T14:43:47;34.80;28.50
1760;DHT22;877;46.266;20.062;2023-09-07T14:46:14;34.80;28.10
1760;DHT22;877;46.266;20.062;2023-09-07T14:48:40;33.50;28.90
1760;DHT22;877;46.266;20.062;2023-09-07T14:51:06;32.70;30.60
1760;DHT22;877;46.266;20.062;2023-09-07T14:53:32;33.10;30.30
1760;DHT22;877;46.266;20.062;2023-09-07T14:55:58;33.50;30.00
1760;DHT22;877;46.266;20.062;2023-09-07T14:58:24;33.20;29.80
1760;DHT22;877;46.266;20.062;2023-09-07T15:00:50;34.20;29.20
1760;DHT22;877;46.266;20.062;2023-09-07T15:03:15;34.50;28.20
1760;DHT22;877;46.266;20.062;2023-09-07T15:05:41;33.60;29.80
1760;DHT22;877;46.266;20.062;2023-09-07T15:08:07;32.90;29.10
1760;DHT22;877;46.266;20.062;2023-09-07T15:10:34;32.90;30.30
1760;DHT22;877;46.266;20.062;2023-09-07T15:13:00;33.10;30.00
1760;DHT22;877;46.266;20.062;2023-09-07T15:15:31;33.10;30.40
1760;DHT22;877;46.266;20.062;2023-09-07T15:18:03;33.70;30.30
1760;DHT22;877;46.266;20.062;2023-09-07T15:20:29;33.70;28.90
1760;DHT22;877;46.266;20.062;2023-09-07T15:22:56;34.20;29.60
1760;DHT22;877;46.266;20.062;2023-09-07T15:25:22;34.80;28.90
1760;DHT22;877;46.266;20.062;2023-09-07T15:27:50;34.80;28.40
1760;DHT22;877;46.266;20.062;2023-09-07T15:30:16;34.90;29.10
1760;DHT22;877;46.266;20.062;2023-09-07T15:32:42;35.00;28.10
1760;DHT22;877;46.266;20.062;2023-09-07T15:35:08;35.00;28.40
1760;DHT22;877;46.266;20.062;2023-09-07T15:37:34;35.20;28.70
1760;DHT22;877;46.266;20.062;2023-09-07T15:40:00;35.20;27.90
1760;DHT22;877;46.266;20.062;2023-09-07T15:42:27;35.20;28.00
1760;DHT22;877;46.266;20.062;2023-09-07T15:44:53;35.10;28.20
1760;DHT22;877;46.266;20.062;2023-09-07T15:47:19;35.20;27.90
1760;DHT22;877;46.266;20.062;2023-09-07T15:49:45;35.40;28.00
1760;DHT22;877;46.266;20.062;2023-09-07T15:52:12;35.00;28.40
1760;DHT22;877;46.266;20.062;2023-09-07T15:54:39;35.30;27.70
1760;DHT22;877;46.266;20.062;2023-09-07T15:57:05;35.50;28.20
1760;DHT22;877;46.266;20.062;2023-09-07T15:59:31;35.10;28.00
1760;DHT22;877;46.266;20.062;2023-09-07T16:01:57;34.90;28.00
1760;DHT22;877;46.266;20.062;2023-09-07T16:04:23;34.90;29.70